TimeCST,TemperatureF,Dew PointF,Humidity,Sea Level PressureIn,VisibilityMPH,Wind Direction,Wind SpeedMPH,Gust SpeedMPH,PrecipitationIn,Events,Conditions,WindDirDegrees,DateUTC
12:56 AM,24.1,21.0,88,30.06,10.0,South,6.9,-,N/A,,Clear,190,2013-02-06 06:56:00
1:56 AM,26.6,23.0,86,30.01,10.0,South,5.8,-,N/A,,Overcast,170,2013-02-06 07:56:00
2:56 AM,26.1,23.0,88,30.05,10.0,SSE,5.8,-,N/A,,Overcast,150,2013-02-06 08:56:00
3:56 AM,26.6,23.0,86,29.96,10.0,SE,9.2,-,N/A,,Overcast,140,2013-02-06 09:56:00
4:56 AM,27.0,23.0,85,30.01,10.0,SE,8.1,-,N/A,,Overcast,130,2013-02-06 10:56:00
5:56 AM,27.0,24.1,89,29.98,9.0,ESE,6.9,-,N/A,,Overcast,110,2013-02-06 11:56:00
6:56 AM,28.0,25.0,88,29.96,10.0,SE,10.4,-,N/A,,Mostly Cloudy,140,2013-02-06 12:56:00
7:56 AM,28.9,25.0,85,29.94,10.0,SSE,12.7,-,N/A,,Clear,150,2013-02-06 13:56:00
8:56 AM,30.9,26.1,82,29.93,10.0,SSE,10.4,-,N/A,,Clear,160,2013-02-06 14:56:00
9:56 AM,33.1,27.0,78,29.92,10.0,South,12.7,-,N/A,,Clear,180,2013-02-06 15:56:00
11:56 AM,39.0,30.0,70,29.88,10.0,SSW,18.4,25.3,N/A,,Clear,200,2013-02-06 17:56:00
12:56 PM,39.9,30.9,70,29.85,10.0,South,10.4,-,N/A,,Clear,190,2013-02-06 18:56:00
1:56 PM,41.0,32.0,70,29.84,10.0,SSW,8.1,-,N/A,,Clear,200,2013-02-06 19:56:00
2:56 PM,42.1,33.1,70,29.85,10.0,SSW,5.8,-,N/A,,Clear,210,2013-02-06 20:56:00
3:56 PM,42.1,34.0,73,29.85,10.0,SSW,3.5,-,N/A,,Clear,200,2013-02-06 21:56:00
4:56 PM,41.0,33.1,73,29.86,10.0,Calm,Calm,-,N/A,,Clear,0,2013-02-06 22:56:00
5:56 PM,37.0,32.0,82,29.88,10.0,Calm,Calm,-,N/A,,Clear,0,2013-02-06 23:56:00
6:56 PM,34.0,30.9,89,29.91,10.0,Calm,Calm,-,N/A,,Mostly Cloudy,0,2013-02-07 00:56:00
7:56 PM,34.0,30.9,89,29.92,10.0,NW,5.8,-,N/A,,Partly Cloudy,310,2013-02-07 01:56:00
8:56 PM,35.1,32.0,89,29.94,10.0,NW,5.8,-,N/A,,Clear,310,2013-02-07 02:56:00
9:56 PM,35.1,30.9,85,29.95,10.0,Calm,Calm,-,N/A,,Overcast,0,2013-02-07 03:56:00
10:56 PM,34.0,30.9,89,29.96,10.0,NNW,6.9,-,N/A,,Scattered Clouds,330,2013-02-07 04:56:00
11:56 PM,32.0,28.9,88,29.97,10.0,North,6.9,-,N/A,,Partly Cloudy,360,2013-02-07 05:56:00